sensor_id;sensor_type;location;lat;lon;timestamp;temperature;humidity
997;DHT22;487;50.126;8.698;2023-04-24T04:02:00;12.80;99.90
997;DHT22;487;50.126;8.698;2023-04-24T04:04:31;12.80;99.90
997;DHT22;487;50.126;8.698;2023-04-24T04:06:59;12.80;99.90
997;DHT22;487;50.126;8.698;2023-04-24T04:09:29;12.80;99.90
997;DHT22;487;50.126;8.698;2023-04-24T04:11:57;12.90;99.90
997;DHT22;487;50.126;8.698;2023-04-24T04:14:25;12.70;99.90
997;DHT22;487;50.126;8.698;2023-04-24T04:16:52;12.70;99.90
997;DHT22;487;50.126;8.698;2023-04-24T04:19:22;12.50;99.90
997;DHT22;487;50.126;8.698;2023-04-24T04:21:50;12.60;99.90
997;DHT22;487;50.126;8.698;2023-04-24T04:24:20;12.60;99.90
997;DHT22;487;50.126;8.698;2023-04-24T04:26:48;12.40;99.90
997;DHT22;487;50.126;8.698;2023-04-24T04:29:17;12.40;99.90
997;DHT22;487;50.126;8.698;2023-04-24T04:31:45;12.30;99.90
997;DHT22;487;50.126;8.698;2023-04-24T04:34:13;12.40;99.90
997;DHT22;487;50.126;8.698;2023-04-24T04:36:42;12.40;99.90
997;DHT22;487;50.126;8.698;2023-04-24T04:39:10;12.30;99.90
997;DHT22;487;50.126;8.698;2023-04-24T04:41:40;12.10;99.90
997;DHT22;487;50.126;8.698;2023-04-24T04:44:08;12.00;99.90
997;DHT22;487;50.126;8.698;2023-04-24T04:46:36;12.00;99.90
997;DHT22;487;50.126;8.698;2023-04-24T04:49:05;11.90;99.90
997;DHT22;487;50.126;8.698;2023-04-24T04:51:32;11.90;99.90
997;DHT22;487;50.126;8.698;2023-04-24T04:54:02;11.90;99.90
997;DHT22;487;50.126;8.698;2023-04-24T04:56:29;11.60;99.90
997;DHT22;487;50.126;8.698;2023-04-24T04:58:57;11.60;99.90
997;DHT22;487;50.126;8.698;2023-04-24T05:01:25;11.50;99.90
997;DHT22;487;50.126;8.698;2023-04-24T05:03:54;11.60;99.90
997;DHT22;487;50.126;8.698;2023-04-24T05:06:22;11.60;99.90
997;DHT22;487;50.126;8.698;2023-04-24T05:08:50;11.60;99.90
997;DHT22;487;50.126;8.698;2023-04-24T05:11:23;11.50;99.90
997;DHT22;487;50.126;8.698;2023-04-24T05:13:52;11.40;99.90
997;DHT22;487;50.126;8.698;2023-04-24T05:16:19;11.40;99.90
997;DHT22;487;50.126;8.698;2023-04-24T05:18:48;11.30;99.90
997;DHT22;487;50.126;8.698;2023-04-24T05:21:16;11.30;99.90
997;DHT22;487;50.126;8.698;2023-04-24T05:23:43;11.30;99.90
997;DHT22;487;50.126;8.698;2023-04-24T05:26:11;11.20;99.90
997;DHT22;487;50.126;8.698;2023-04-24T05:28:41;11.20;99.90
997;DHT22;487;50.126;8.698;2023-04-24T05:31:09;11.10;99.90
997;DHT22;487;50.126;8.698;2023-04-24T05:33:39;11.00;99.90
997;DHT22;487;50.126;8.698;2023-04-24T05:36:06;11.00;99.90
997;DHT22;487;50.126;8.698;2023-04-24T05:38:34;11.10;99.90
997;DHT22;487;50.126;8.698;2023-04-24T05:41:03;11.10;99.90
997;DHT22;487;50.126;8.698;2023-04-24T05:43:30;11.10;99.90
997;DHT22;487;50.126;8.698;2023-04-24T05:46:00;11.20;99.90
997;DHT22;487;50.126;8.698;2023-04-24T05:50:56;11.20;99.90
997;DHT22;487;50.126;8.698;2023-04-24T05:53:24;11.00;99.90
997;DHT22;487;50.126;8.698;2023-04-24T05:55:52;11.00;99.90
997;DHT22;487;50.126;8.698;2023-04-24T05:58:20;11.00;99.90
997;DHT22;487;50.126;8.698;2023-04-24T06:00:47;11.10;99.90
997;DHT22;487;50.126;8.698;2023-04-24T06:03:17;11.00;99.90
997;DHT22;487;50.126;8.698;2023-04-24T06:05:45;11.10;99.90
997;DHT22;487;50.126;8.698;2023-04-24T06:08:13;11.20;99.90
997;DHT22;487;50.126;8.698;2023-04-24T06:10:41;11.20;99.90
997;DHT22;487;50.126;8.698;2023-04-24T06:13:09;11.20;99.90
997;DHT22;487;50.126;8.698;2023-04-24T06:15:37;11.20;99.90
997;DHT22;487;50.126;8.698;2023-04-24T06:18:05;11.20;99.90
997;DHT22;487;50.126;8.698;2023-04-24T06:20:34;11.20;99.90
997;DHT22;487;50.126;8.698;2023-04-24T06:23:02;11.20;99.90
997;DHT22;487;50.126;8.698;2023-04-24T06:25:30;11.20;99.90
997;DHT22;487;50.126;8.698;2023-04-24T06:27:58;11.10;99.90
997;DHT22;487;50.126;8.698;2023-04-24T06:32:54;11.10;99.90
997;DHT22;487;50.126;8.698;2023-04-24T06:35:36;11.10;99.90
997;DHT22;487;50.126;8.698;2023-04-24T06:38:05;11.20;99.90
997;DHT22;487;50.126;8.698;2023-04-24T06:40:32;11.30;99.90
997;DHT22;487;50.126;8.698;2023-04-24T06:43:00;11.30;99.90
997;DHT22;487;50.126;8.698;2023-04-24T06:45:30;11.30;99.90
997;DHT22;487;50.126;8.698;2023-04-24T06:47:58;11.30;99.90
997;DHT22;487;50.126;8.698;2023-04-24T06:52:56;11.40;99.90
997;DHT22;487;50.126;8.698;2023-04-24T06:55:23;11.40;99.90
997;DHT22;487;50.126;8.698;2023-04-24T06:57:51;11.30;99.90
997;DHT22;487;50.126;8.698;2023-04-24T07:00:19;11.30;99.90
997;DHT22;487;50.126;8.698;2023-04-24T07:02:47;11.80;99.90
997;DHT22;487;50.126;8.698;2023-04-24T07:05:15;11.40;99.90
997;DHT22;487;50.126;8.698;2023-04-24T07:07:46;11.40;99.90
997;DHT22;487;50.126;8.698;2023-04-24T07:10:15;11.40;99.90
997;DHT22;487;50.126;8.698;2023-04-24T07:12:43;11.40;99.90
997;DHT22;487;50.126;8.698;2023-04-24T07:15:11;11.50;99.90
997;DHT22;487;50.126;8.698;2023-04-24T07:17:39;11.50;99.90
997;DHT22;487;50.126;8.698;2023-04-24T07:20:10;11.50;99.90
997;DHT22;487;50.126;8.698;2023-04-24T07:22:38;11.50;99.90
997;DHT22;487;50.126;8.698;2023-04-24T07:25:08;11.40;99.90
997;DHT22;487;50.126;8.698;2023-04-24T07:27:37;11.40;99.90
997;DHT22;487;50.126;8.698;2023-04-24T07:30:06;11.50;99.90
997;DHT22;487;50.126;8.698;2023-04-24T07:32:34;11.90;99.90
997;DHT22;487;50.126;8.698;2023-04-24T07:35:02;11.60;99.90
997;DHT22;487;50.126;8.698;2023-04-24T07:37:30;11.70;99.90
997;DHT22;487;50.126;8.698;2023-04-24T07:39:58;11.60;99.90
997;DHT22;487;50.126;8.698;2023-04-24T07:42:26;11.70;99.90
997;DHT22;487;50.126;8.698;2023-04-24T07:44:58;11.60;99.90
997;DHT22;487;50.126;8.698;2023-04-24T07:47:26;11.80;99.90
997;DHT22;487;50.126;8.698;2023-04-24T07:49:54;11.90;99.90
997;DHT22;487;50.126;8.698;2023-04-24T07:52:22;11.80;99.90
997;DHT22;487;50.126;8.698;2023-04-24T07:54:50;11.80;99.90
997;DHT22;487;50.126;8.698;2023-04-24T07:57:19;11.70;99.90
997;DHT22;487;50.126;8.698;2023-04-24T07:59:47;11.70;99.90
997;DHT22;487;50.126;8.698;2023-04-24T08:02:16;11.60;99.90
997;DHT22;487;50.126;8.698;2023-04-24T08:04:44;11.70;99.90
997;DHT22;487;50.126;8.698;2023-04-24T08:07:12;11.70;99.90
997;DHT22;487;50.126;8.698;2023-04-24T08:09:40;11.70;99.90
997;DHT22;487;50.126;8.698;2023-04-24T08:12:08;11.60;99.90
997;DHT22;487;50.126;8.698;2023-04-24T08:14:36;11.70;99.90
997;DHT22;487;50.126;8.698;2023-04-24T08:17:04;11.70;99.90
997;DHT22;487;50.126;8.698;2023-04-24T08:19:33;11.70;99.90
997;DHT22;487;50.126;8.698;2023-04-24T08:22:01;11.60;99.90
997;DHT22;487;50.126;8.698;2023-04-24T08:24:30;11.70;99.90
997;DHT22;487;50.126;8.698;2023-04-24T08:26:58;11.80;99.90
997;DHT22;487;50.126;8.698;2023-04-24T08:31:56;12.10;99.90
997;DHT22;487;50.126;8.698;2023-04-24T08:34:24;12.20;99.90
997;DHT22;487;50.126;8.698;2023-04-24T08:36:54;12.20;99.90
997;DHT22;487;50.126;8.698;2023-04-24T08:39:21;12.00;99.90
997;DHT22;487;50.126;8.698;2023-04-24T08:41:50;12.10;99.90
997;DHT22;487;50.126;8.698;2023-04-24T08:44:20;12.20;99.90
997;DHT22;487;50.126;8.698;2023-04-24T08:46:48;12.40;99.90
997;DHT22;487;50.126;8.698;2023-04-24T08:49:18;12.50;99.90
997;DHT22;487;50.126;8.698;2023-04-24T08:51:46;12.40;99.90
997;DHT22;487;50.126;8.698;2023-04-24T08:54:16;12.20;99.90
997;DHT22;487;50.126;8.698;2023-04-24T08:56:45;12.20;99.90
997;DHT22;487;50.126;8.698;2023-04-24T08:59:15;12.30;99.90
997;DHT22;487;50.126;8.698;2023-04-24T09:01:45;12.30;99.90
997;DHT22;487;50.126;8.698;2023-04-24T09:04:14;12.30;99.90
997;DHT22;487;50.126;8.698;2023-04-24T09:06:44;12.10;99.90
997;DHT22;487;50.126;8.698;2023-04-24T09:09:12;12.10;99.90
997;DHT22;487;50.126;8.698;2023-04-24T09:11:42;12.00;99.90
997;DHT22;487;50.126;8.698;2023-04-24T09:14:10;12.00;99.90
997;DHT22;487;50.126;8.698;2023-04-24T09:16:38;12.10;99.90
997;DHT22;487;50.126;8.698;2023-04-24T09:19:05;12.00;99.90
997;DHT22;487;50.126;8.698;2023-04-24T09:21:34;12.00;99.90
997;DHT22;487;50.126;8.698;2023-04-24T09:24:05;12.00;99.90
997;DHT22;487;50.126;8.698;2023-04-24T09:26:35;12.00;99.90
997;DHT22;487;50.126;8.698;2023-04-24T09:29:05;11.90;99.90
997;DHT22;487;50.126;8.698;2023-04-24T09:31:32;12.00;99.90
997;DHT22;487;50.126;8.698;2023-04-24T09:34:02;12.00;99.90
997;DHT22;487;50.126;8.698;2023-04-24T09:36:35;11.90;99.90
997;DHT22;487;50.126;8.698;2023-04-24T09:39:05;11.80;99.90
997;DHT22;487;50.126;8.698;2023-04-24T09:41:35;11.90;99.90
997;DHT22;487;50.126;8.698;2023-04-24T09:44:13;11.80;99.90
997;DHT22;487;50.126;8.698;2023-04-24T09:46:41;11.70;99.90
997;DHT22;487;50.126;8.698;2023-04-24T09:49:12;11.80;99.90
997;DHT22;487;50.126;8.698;2023-04-24T09:51:41;11.80;99.90
997;DHT22;487;50.126;8.698;2023-04-24T09:54:16;11.80;99.90
997;DHT22;487;50.126;8.698;2023-04-24T09:56:47;11.90;99.90
997;DHT22;487;50.126;8.698;2023-04-24T09:59:18;11.90;99.90
997;DHT22;487;50.126;8.698;2023-04-24T10:01:46;12.00;99.90
997;DHT22;487;50.126;8.698;2023-04-24T10:04:16;12.00;99.90
997;DHT22;487;50.126;8.698;2023-04-24T10:06:46;12.00;99.90
997;DHT22;487;50.126;8.698;2023-04-24T10:09:15;12.10;99.90
997;DHT22;487;50.126;8.698;2023-04-24T10:11:44;12.20;99.90
997;DHT22;487;50.126;8.698;2023-04-24T10:14:14;12.20;99.90
997;DHT22;487;50.126;8.698;2023-04-24T10:16:44;12.10;99.90
997;DHT22;487;50.126;8.698;2023-04-24T10:19:13;12.00;99.90
997;DHT22;487;50.126;8.698;2023-04-24T10:21:44;12.00;99.90
997;DHT22;487;50.126;8.698;2023-04-24T10:24:13;11.80;99.90
997;DHT22;487;50.126;8.698;2023-04-24T10:26:42;11.80;99.90
997;DHT22;487;50.126;8.698;2023-04-24T10:29:11;11.80;99.90
997;DHT22;487;50.126;8.698;2023-04-24T10:31:39;11.90;99.90
997;DHT22;487;50.126;8.698;2023-04-24T10:34:09;11.90;99.90
997;DHT22;487;50.126;8.698;2023-04-24T10:36:41;12.00;99.90
997;DHT22;487;50.126;8.698;2023-04-24T10:39:12;12.00;99.90
997;DHT22;487;50.126;8.698;2023-04-24T10:41:41;11.70;99.90
997;DHT22;487;50.126;8.698;2023-04-24T10:44:10;11.60;99.90
997;DHT22;487;50.126;8.698;2023-04-24T10:46:39;11.70;99.90
997;DHT22;487;50.126;8.698;2023-04-24T10:49:11;11.60;99.90
997;DHT22;487;50.126;8.698;2023-04-24T10:51:47;11.60;99.90
997;DHT22;487;50.126;8.698;2023-04-24T10:54:25;11.60;99.90
997;DHT22;487;50.126;8.698;2023-04-24T10:56:55;11.40;99.90
997;DHT22;487;50.126;8.698;2023-04-24T10:59:41;11.40;99.90
997;DHT22;487;50.126;8.698;2023-04-24T11:02:09;11.40;99.90
997;DHT22;487;50.126;8.698;2023-04-24T11:04:39;11.50;99.90
997;DHT22;487;50.126;8.698;2023-04-24T11:07:09;11.60;99.90
997;DHT22;487;50.126;8.698;2023-04-24T11:09:37;11.70;99.90
997;DHT22;487;50.126;8.698;2023-04-24T11:12:08;11.80;99.90
997;DHT22;487;50.126;8.698;2023-04-24T11:15:02;11.90;99.90
997;DHT22;487;50.126;8.698;2023-04-24T11:17:31;12.00;99.90
997;DHT22;487;50.126;8.698;2023-04-24T11:20:03;12.00;99.90
997;DHT22;487;50.126;8.698;2023-04-24T11:22:53;12.20;99.90
997;DHT22;487;50.126;8.698;2023-04-24T11:25:22;12.30;99.90
997;DHT22;487;50.126;8.698;2023-04-24T11:27:50;12.40;99.90
997;DHT22;487;50.126;8.698;2023-04-24T11:30:30;12.60;99.90
997;DHT22;487;50.126;8.698;2023-04-24T11:33:02;12.50;99.90
997;DHT22;487;50.126;8.698;2023-04-24T11:35:35;12.50;99.90
997;DHT22;487;50.126;8.698;2023-04-24T11:38:04;12.50;99.90
997;DHT22;487;50.126;8.698;2023-04-24T11:40:37;12.60;99.90
997;DHT22;487;50.126;8.698;2023-04-24T11:43:06;12.60;99.90
997;DHT22;487;50.126;8.698;2023-04-24T11:45:34;12.90;99.90
997;DHT22;487;50.126;8.698;2023-04-24T11:48:03;13.10;99.90
997;DHT22;487;50.126;8.698;2023-04-24T11:50:32;13.10;99.90
997;DHT22;487;50.126;8.698;2023-04-24T11:53:00;13.10;99.90
997;DHT22;487;50.126;8.698;2023-04-24T11:55:28;13.00;99.90
997;DHT22;487;50.126;8.698;2023-04-24T11:57:58;13.00;99.90
997;DHT22;487;50.126;8.698;2023-04-24T12:03:04;12.90;99.90
997;DHT22;487;50.126;8.698;2023-04-24T12:05:35;12.90;99.90
997;DHT22;487;50.126;8.698;2023-04-24T12:08:04;13.00;99.90
997;DHT22;487;50.126;8.698;2023-04-24T12:10:32;13.00;99.90
997;DHT22;487;50.126;8.698;2023-04-24T12:13:01;12.90;99.90
997;DHT22;487;50.126;8.698;2023-04-24T12:15:29;12.70;99.90
997;DHT22;487;50.126;8.698;2023-04-24T12:17:57;12.70;99.90
997;DHT22;487;50.126;8.698;2023-04-24T12:20:27;12.70;99.90
997;DHT22;487;50.126;8.698;2023-04-24T12:22:57;12.50;99.90
997;DHT22;487;50.126;8.698;2023-04-24T12:25:27;12.00;99.90
997;DHT22;487;50.126;8.698;2023-04-24T12:28:09;11.70;99.90
997;DHT22;487;50.126;8.698;2023-04-24T12:30:41;11.70;99.90
997;DHT22;487;50.126;8.698;2023-04-24T12:33:11;11.60;99.90
997;DHT22;487;50.126;8.698;2023-04-24T12:35:40;11.60;99.90
997;DHT22;487;50.126;8.698;2023-04-24T12:38:11;11.80;99.90
997;DHT22;487;50.126;8.698;2023-04-24T12:40:39;11.90;99.90
997;DHT22;487;50.126;8.698;2023-04-24T12:43:13;12.00;99.90
997;DHT22;487;50.126;8.698;2023-04-24T12:45:42;11.90;99.90
997;DHT22;487;50.126;8.698;2023-04-24T12:48:10;12.00;99.90
997;DHT22;487;50.126;8.698;2023-04-24T12:50:38;12.00;99.90
997;DHT22;487;50.126;8.698;2023-04-24T12:53:09;12.10;99.90
997;DHT22;487;50.126;8.698;2023-04-24T12:55:37;12.00;99.90
997;DHT22;487;50.126;8.698;2023-04-24T12:58:05;12.40;99.90
997;DHT22;487;50.126;8.698;2023-04-24T13:00:33;12.40;99.90
997;DHT22;487;50.126;8.698;2023-04-24T13:03:02;12.50;99.90
997;DHT22;487;50.126;8.698;2023-04-24T13:05:30;12.60;99.90
997;DHT22;487;50.126;8.698;2023-04-24T13:07:58;12.80;99.90
997;DHT22;487;50.126;8.698;2023-04-24T13:10:27;13.00;99.90
997;DHT22;487;50.126;8.698;2023-04-24T13:12:55;13.30;99.90
997;DHT22;487;50.126;8.698;2023-04-24T13:15:23;13.40;99.90
997;DHT22;487;50.126;8.698;2023-04-24T13:17:51;13.50;99.90
997;DHT22;487;50.126;8.698;2023-04-24T13:20:19;13.60;99.90
997;DHT22;487;50.126;8.698;2023-04-24T13:22:46;13.70;99.90
997;DHT22;487;50.126;8.698;2023-04-24T13:25:14;13.70;99.90
997;DHT22;487;50.126;8.698;2023-04-24T13:27:45;13.80;99.90
997;DHT22;487;50.126;8.698;2023-04-24T13:30:13;13.60;99.90
997;DHT22;487;50.126;8.698;2023-04-24T13:32:41;13.40;99.90
997;DHT22;487;50.126;8.698;2023-04-24T13:35:08;13.40;99.90
997;DHT22;487;50.126;8.698;2023-04-24T13:37:36;13.40;99.90
997;DHT22;487;50.126;8.698;2023-04-24T13:42:33;13.00;99.90
997;DHT22;487;50.126;8.698;2023-04-24T13:45:03;12.90;99.90
997;DHT22;487;50.126;8.698;2023-04-24T13:47:50;12.80;99.90
997;DHT22;487;50.126;8.698;2023-04-24T13:50:18;13.00;99.90
997;DHT22;487;50.126;8.698;2023-04-24T13:52:46;13.10;99.90
997;DHT22;487;50.126;8.698;2023-04-24T13:55:14;13.20;99.90
997;DHT22;487;50.126;8.698;2023-04-24T13:57:42;13.20;99.90
997;DHT22;487;50.126;8.698;2023-04-24T14:00:12;13.30;99.90
997;DHT22;487;50.126;8.698;2023-04-24T14:02:41;13.30;99.90
997;DHT22;487;50.126;8.698;2023-04-24T14:05:10;13.40;99.90
997;DHT22;487;50.126;8.698;2023-04-24T14:07:38;13.40;99.90
997;DHT22;487;50.126;8.698;2023-04-24T14:10:07;13.40;99.90
997;DHT22;487;50.126;8.698;2023-04-24T14:12:35;13.50;99.90
997;DHT22;487;50.126;8.698;2023-04-24T14:15:04;13.60;99.90
997;DHT22;487;50.126;8.698;2023-04-24T14:17:33;13.60;99.90
997;DHT22;487;50.126;8.698;2023-04-24T14:20:01;13.60;99.90
997;DHT22;487;50.126;8.698;2023-04-24T14:22:29;13.70;99.90
997;DHT22;487;50.126;8.698;2023-04-24T14:24:57;14.00;99.90
997;DHT22;487;50.126;8.698;2023-04-24T14:27:26;14.20;99.90
997;DHT22;487;50.126;8.698;2023-04-24T14:29:54;14.40;99.90
997;DHT22;487;50.126;8.698;2023-04-24T14:32:22;14.40;99.90
997;DHT22;487;50.126;8.698;2023-04-24T14:34:51;14.40;99.90
997;DHT22;487;50.126;8.698;2023-04-24T14:37:19;14.30;99.90
997;DHT22;487;50.126;8.698;2023-04-24T14:39:47;14.40;99.90
997;DHT22;487;50.126;8.698;2023-04-24T14:42:32;14.30;99.90
997;DHT22;487;50.126;8.698;2023-04-24T14:45:00;12.90;99.90
997;DHT22;487;50.126;8.698;2023-04-24T14:47:28;13.80;99.90
997;DHT22;487;50.126;8.698;2023-04-24T14:49:58;13.80;99.90
997;DHT22;487;50.126;8.698;2023-04-24T14:52:26;13.60;99.90
997;DHT22;487;50.126;8.698;2023-04-24T14:54:54;13.50;99.90
997;DHT22;487;50.126;8.698;2023-04-24T14:57:22;13.50;99.90
997;DHT22;487;50.126;8.698;2023-04-24T14:59:50;13.40;99.90
997;DHT22;487;50.126;8.698;2023-04-24T15:02:18;13.30;99.90
997;DHT22;487;50.126;8.698;2023-04-24T15:04:46;15.10;99.90
997;DHT22;487;50.126;8.698;2023-04-24T15:07:16;13.40;99.90
997;DHT22;487;50.126;8.698;2023-04-24T15:09:44;13.40;99.90
997;DHT22;487;50.126;8.698;2023-04-24T15:12:13;13.40;99.90
997;DHT22;487;50.126;8.698;2023-04-24T15:14:41;13.50;99.90
997;DHT22;487;50.126;8.698;2023-04-24T15:17:09;13.50;99.90
997;DHT22;487;50.126;8.698;2023-04-24T15:19:37;13.60;99.90
997;DHT22;487;50.126;8.698;2023-04-24T15:22:04;13.60;99.90
997;DHT22;487;50.126;8.698;2023-04-24T15:24:34;13.60;99.90
997;DHT22;487;50.126;8.698;2023-04-24T15:27:01;13.60;99.90
997;DHT22;487;50.126;8.698;2023-04-24T15:29:29;13.50;99.90
997;DHT22;487;50.126;8.698;2023-04-24T15:31:58;13.40;99.90
997;DHT22;487;50.126;8.698;2023-04-24T15:34:26;13.40;99.90
997;DHT22;487;50.126;8.698;2023-04-24T15:36:54;13.60;99.90
997;DHT22;487;50.126;8.698;2023-04-24T15:39:22;13.60;99.90
997;DHT22;487;50.126;8.698;2023-04-24T15:41:52;9.90;99.90
997;DHT22;487;50.126;8.698;2023-04-24T15:44:21;13.60;99.90
997;DHT22;487;50.126;8.698;2023-04-24T15:46:49;13.60;99.90
997;DHT22;487;50.126;8.698;2023-04-24T15:49:17;13.60;99.90
997;DHT22;487;50.126;8.698;2023-04-24T15:51:45;13.50;99.90
997;DHT22;487;50.126;8.698;2023-04-24T15:54:13;13.60;99.90
997;DHT22;487;50.126;8.698;2023-04-24T15:56:41;13.60;99.90
997;DHT22;487;50.126;8.698;2023-04-24T15:59:12;13.60;99.90
997;DHT22;487;50.126;8.698;2023-04-24T16:01:40;13.80;99.90
997;DHT22;487;50.126;8.698;2023-04-24T16:04:08;13.80;99.90
997;DHT22;487;50.126;8.698;2023-04-24T16:06:36;13.70;99.90
997;DHT22;487;50.126;8.698;2023-04-24T16:09:04;13.50;99.90
997;DHT22;487;50.126;8.698;2023-04-24T16:11:33;13.60;99.90
997;DHT22;487;50.126;8.698;2023-04-24T16:14:02;13.70;99.90
997;DHT22;487;50.126;8.698;2023-04-24T16:16:31;13.70;99.90
997;DHT22;487;50.126;8.698;2023-04-24T16:18:59;13.70;99.90
997;DHT22;487;50.126;8.698;2023-04-24T16:21:27;13.70;99.90
997;DHT22;487;50.126;8.698;2023-04-24T16:23:55;13.80;99.90
997;DHT22;487;50.126;8.698;2023-04-24T16:26:22;13.90;99.90
997;DHT22;487;50.126;8.698;2023-04-24T16:28:50;13.90;99.90
997;DHT22;487;50.126;8.698;2023-04-24T16:31:18;14.00;99.90
997;DHT22;487;50.126;8.698;2023-04-24T16:33:47;14.00;99.90
997;DHT22;487;50.126;8.698;2023-04-24T16:36:15;14.00;99.90
997;DHT22;487;50.126;8.698;2023-04-24T16:38:43;14.00;99.90
997;DHT22;487;50.126;8.698;2023-04-24T16:41:12;13.90;99.90
997;DHT22;487;50.126;8.698;2023-04-24T16:43:40;13.90;99.90
997;DHT22;487;50.126;8.698;2023-04-24T16:46:07;14.00;99.90
997;DHT22;487;50.126;8.698;2023-04-24T16:48:35;14.20;99.90
997;DHT22;487;50.126;8.698;2023-04-24T16:51:04;14.00;99.90
997;DHT22;487;50.126;8.698;2023-04-24T16:53:32;14.00;99.90
997;DHT22;487;50.126;8.698;2023-04-24T16:56:00;13.90;99.90
997;DHT22;487;50.126;8.698;2023-04-24T16:58:28;13.90;99.90
997;DHT22;487;50.126;8.698;2023-04-24T17:00:56;13.90;99.90
997;DHT22;487;50.126;8.698;2023-04-24T17:03:24;13.80;99.90
997;DHT22;487;50.126;8.698;2023-04-24T17:05:52;13.80;99.90
997;DHT22;487;50.126;8.698;2023-04-24T17:08:21;13.70;99.90
997;DHT22;487;50.126;8.698;2023-04-24T17:10:49;13.60;99.90
997;DHT22;487;50.126;8.698;2023-04-24T17:13:17;13.40;99.90
997;DHT22;487;50.126;8.698;2023-04-24T17:15:45;13.50;99.90
997;DHT22;487;50.126;8.698;2023-04-24T17:18:13;13.50;99.90
997;DHT22;487;50.126;8.698;2023-04-24T17:20:41;13.60;99.90
997;DHT22;487;50.126;8.698;2023-04-24T17:23:09;13.60;99.90
997;DHT22;487;50.126;8.698;2023-04-24T17:25:40;13.70;99.90
997;DHT22;487;50.126;8.698;2023-04-24T17:28:14;13.80;99.90
997;DHT22;487;50.126;8.698;2023-04-24T17:30:44;13.70;99.90
997;DHT22;487;50.126;8.698;2023-04-24T17:33:12;13.70;99.90
997;DHT22;487;50.126;8.698;2023-04-24T17:35:40;13.70;99.90
997;DHT22;487;50.126;8.698;2023-04-24T17:38:08;13.70;99.90
997;DHT22;487;50.126;8.698;2023-04-24T17:40:36;13.70;99.90
997;DHT22;487;50.126;8.698;2023-04-24T17:43:06;13.60;99.90
997;DHT22;487;50.126;8.698;2023-04-24T17:45:34;13.60;99.90
997;DHT22;487;50.126;8.698;2023-04-24T17:48:03;13.50;99.90
997;DHT22;487;50.126;8.698;2023-04-24T17:50:31;13.60;99.90
997;DHT22;487;50.126;8.698;2023-04-24T17:52:58;13.60;99.90
997;DHT22;487;50.126;8.698;2023-04-24T17:55:26;13.60;99.90
997;DHT22;487;50.126;8.698;2023-04-24T17:57:54;13.60;99.90
997;DHT22;487;50.126;8.698;2023-04-24T18:00:24;13.60;99.90
997;DHT22;487;50.126;8.698;2023-04-24T18:02:51;13.50;99.90
997;DHT22;487;50.126;8.698;2023-04-24T18:05:27;13.50;99.90
997;DHT22;487;50.126;8.698;2023-04-24T18:07:55;13.50;99.90
997;DHT22;487;50.126;8.698;2023-04-24T18:10:24;13.50;99.90
997;DHT22;487;50.126;8.698;2023-04-24T18:12:52;13.40;99.90
997;DHT22;487;50.126;8.698;2023-04-24T18:15:21;13.60;99.90
997;DHT22;487;50.126;8.698;2023-04-24T18:17:50;13.60;99.90
997;DHT22;487;50.126;8.698;2023-04-24T18:20:19;13.60;99.90
997;DHT22;487;50.126;8.698;2023-04-24T18:22:47;13.30;99.90
997;DHT22;487;50.126;8.698;2023-04-24T18:25:15;13.30;99.90
997;DHT22;487;50.126;8.698;2023-04-24T18:27:43;15.60;99.90
997;DHT22;487;50.126;8.698;2023-04-24T18:30:12;12.90;99.90
997;DHT22;487;50.126;8.698;2023-04-24T18:32:40;12.80;99.90
997;DHT22;487;50.126;8.698;2023-04-24T18:35:10;12.70;99.90
997;DHT22;487;50.126;8.698;2023-04-24T18:37:38;12.60;99.90
997;DHT22;487;50.126;8.698;2023-04-24T18:40:07;12.70;99.90
997;DHT22;487;50.126;8.698;2023-04-24T18:42:35;12.70;99.90
997;DHT22;487;50.126;8.698;2023-04-24T18:45:04;12.60;99.90
997;DHT22;487;50.126;8.698;2023-04-24T18:47:32;12.40;99.90
997;DHT22;487;50.126;8.698;2023-04-24T18:50:00;12.30;99.90
997;DHT22;487;50.126;8.698;2023-04-24T18:52:29;12.20;99.90
997;DHT22;487;50.126;8.698;2023-04-24T18:54:59;12.10;99.90
997;DHT22;487;50.126;8.698;2023-04-24T19:04:56;11.80;99.90
997;DHT22;487;50.126;8.698;2023-04-24T19:07:28;11.90;99.90
997;DHT22;487;50.126;8.698;2023-04-24T19:14:53;11.80;99.90
997;DHT22;487;50.126;8.698;2023-04-24T19:19:52;11.60;99.90
997;DHT22;487;50.126;8.698;2023-04-24T19:22:20;11.40;99.90
997;DHT22;487;50.126;8.698;2023-04-24T19:24:49;11.30;99.90
997;DHT22;487;50.126;8.698;2023-04-24T19:27:19;11.20;99.90
997;DHT22;487;50.126;8.698;2023-04-24T19:29:47;11.20;99.90
997;DHT22;487;50.126;8.698;2023-04-24T19:34:45;11.10;99.90
997;DHT22;487;50.126;8.698;2023-04-24T19:39:41;10.80;99.90
997;DHT22;487;50.126;8.698;2023-04-24T19:44:39;10.70;99.90
997;DHT22;487;50.126;8.698;2023-04-24T19:49:35;10.70;99.90
997;DHT22;487;50.126;8.698;2023-04-24T19:52:04;10.70;99.90
997;DHT22;487;50.126;8.698;2023-04-24T19:54:32;10.70;99.90
997;DHT22;487;50.126;8.698;2023-04-24T19:57:00;10.60;99.90
997;DHT22;487;50.126;8.698;2023-04-24T20:01:59;10.70;99.90
997;DHT22;487;50.126;8.698;2023-04-24T20:04:27;10.60;99.90
997;DHT22;487;50.126;8.698;2023-04-24T20:06:55;10.60;99.90
997;DHT22;487;50.126;8.698;2023-04-24T20:09:23;10.50;99.90
997;DHT22;487;50.126;8.698;2023-04-24T20:11:51;10.50;99.90
997;DHT22;487;50.126;8.698;2023-04-24T20:14:20;10.50;99.90
997;DHT22;487;50.126;8.698;2023-04-24T20:16:49;10.50;99.90
997;DHT22;487;50.126;8.698;2023-04-24T20:19:16;10.40;99.90
997;DHT22;487;50.126;8.698;2023-04-24T20:21:44;10.40;99.90
997;DHT22;487;50.126;8.698;2023-04-24T20:24:12;10.50;99.90
997;DHT22;487;50.126;8.698;2023-04-24T20:26:41;10.60;99.90
997;DHT22;487;50.126;8.698;2023-04-24T20:29:09;10.60;99.90
997;DHT22;487;50.126;8.698;2023-04-24T20:31:39;10.60;99.90
997;DHT22;487;50.126;8.698;2023-04-24T20:34:09;10.60;99.90
997;DHT22;487;50.126;8.698;2023-04-24T20:36:36;10.70;99.90
997;DHT22;487;50.126;8.698;2023-04-24T20:39:04;10.70;99.90
997;DHT22;487;50.126;8.698;2023-04-24T20:41:33;10.60;99.90
997;DHT22;487;50.126;8.698;2023-04-24T20:44:02;10.60;99.90
997;DHT22;487;50.126;8.698;2023-04-24T20:46:30;10.60;99.90
997;DHT22;487;50.126;8.698;2023-04-24T20:48:58;10.60;99.90
997;DHT22;487;50.126;8.698;2023-04-24T20:51:28;10.70;99.90
997;DHT22;487;50.126;8.698;2023-04-24T20:53:56;10.70;99.90
997;DHT22;487;50.126;8.698;2023-04-24T20:56:23;10.70;99.90
997;DHT22;487;50.126;8.698;2023-04-24T20:58:52;10.70;99.90
997;DHT22;487;50.126;8.698;2023-04-24T21:01:23;10.70;99.90
997;DHT22;487;50.126;8.698;2023-04-24T21:06:19;10.90;99.90
997;DHT22;487;50.126;8.698;2023-04-24T21:08:49;10.90;99.90
997;DHT22;487;50.126;8.698;2023-04-24T21:11:17;10.80;99.90
997;DHT22;487;50.126;8.698;2023-04-24T21:13:45;10.90;99.90
997;DHT22;487;50.126;8.698;2023-04-24T21:16:13;10.90;99.90
997;DHT22;487;50.126;8.698;2023-04-24T21:18:41;10.90;99.90
997;DHT22;487;50.126;8.698;2023-04-24T21:21:09;10.80;99.90
997;DHT22;487;50.126;8.698;2023-04-24T21:23:36;10.80;99.90
997;DHT22;487;50.126;8.698;2023-04-24T21:26:06;10.90;99.90
997;DHT22;487;50.126;8.698;2023-04-24T21:28:34;10.80;99.90
997;DHT22;487;50.126;8.698;2023-04-24T21:31:02;10.80;99.90